sensor_id;sensor_type;location;lat;lon;timestamp;P1;durP1;ratioP1;P2;durP2;ratioP2
71106;SDS011;58763;47.982;11.516;2023-04-03T00:00:55;13.07;;;7.70;;
71106;SDS011;58763;47.982;11.516;2023-04-03T00:03:22;15.93;;;8.43;;
71106;SDS011;58763;47.982;11.516;2023-04-03T00:05:48;13.88;;;8.20;;
71106;SDS011;58763;47.982;11.516;2023-04-03T00:08:14;13.48;;;7.53;;
71106;SDS011;58763;47.982;11.516;2023-04-03T00:10:40;16.15;;;8.57;;
71106;SDS011;58763;47.982;11.516;2023-04-03T00:13:06;15.70;;;8.60;;
71106;SDS011;58763;47.982;11.516;2023-04-03T00:15:32;14.35;;;7.72;;
71106;SDS011;58763;47.982;11.516;2023-04-03T00:18:00;15.23;;;8.25;;
71106;SDS011;58763;47.982;11.516;2023-04-03T00:20:26;12.95;;;7.85;;
71106;SDS011;58763;47.982;11.516;2023-04-03T00:22:53;13.65;;;8.32;;
71106;SDS011;58763;47.982;11.516;2023-04-03T00:25:19;12.23;;;7.20;;
71106;SDS011;58763;47.982;11.516;2023-04-03T00:27:44;14.00;;;8.00;;
71106;SDS011;58763;47.982;11.516;2023-04-03T00:30:11;14.25;;;7.95;;
71106;SDS011;58763;47.982;11.516;2023-04-03T00:32:39;14.93;;;8.35;;
71106;SDS011;58763;47.982;11.516;2023-04-03T00:35:05;15.10;;;8.30;;
71106;SDS011;58763;47.982;11.516;2023-04-03T00:37:31;12.90;;;7.72;;
71106;SDS011;58763;47.982;11.516;2023-04-03T00:39:57;13.13;;;7.88;;
71106;SDS011;58763;47.982;11.516;2023-04-03T00:42:23;15.45;;;8.43;;
71106;SDS011;58763;47.982;11.516;2023-04-03T00:47:16;14.38;;;8.35;;
71106;SDS011;58763;47.982;11.516;2023-04-03T00:49:43;12.40;;;7.85;;
71106;SDS011;58763;47.982;11.516;2023-04-03T00:52:14;14.25;;;7.93;;
71106;SDS011;58763;47.982;11.516;2023-04-03T00:54:43;16.02;;;8.23;;
71106;SDS011;58763;47.982;11.516;2023-04-03T00:57:10;13.38;;;7.28;;
71106;SDS011;58763;47.982;11.516;2023-04-03T00:59:38;12.75;;;7.65;;
71106;SDS011;58763;47.982;11.516;2023-04-03T01:02:07;13.55;;;7.93;;
71106;SDS011;58763;47.982;11.516;2023-04-03T01:04:33;12.40;;;7.45;;
71106;SDS011;58763;47.982;11.516;2023-04-03T01:07:08;12.95;;;7.70;;
71106;SDS011;58763;47.982;11.516;2023-04-03T01:09:34;11.98;;;7.22;;
71106;SDS011;58763;47.982;11.516;2023-04-03T01:14:46;13.07;;;7.50;;
71106;SDS011;58763;47.982;11.516;2023-04-03T01:25:42;12.05;;;7.20;;
71106;SDS011;58763;47.982;11.516;2023-04-03T01:28:10;13.00;;;6.88;;
71106;SDS011;58763;47.982;11.516;2023-04-03T01:33:35;11.73;;;7.38;;
71106;SDS011;58763;47.982;11.516;2023-04-03T01:36:02;12.63;;;7.13;;
71106;SDS011;58763;47.982;11.516;2023-04-03T01:38:29;12.00;;;7.15;;
71106;SDS011;58763;47.982;11.516;2023-04-03T01:40:54;12.07;;;7.47;;
71106;SDS011;58763;47.982;11.516;2023-04-03T01:43:20;12.20;;;6.47;;
71106;SDS011;58763;47.982;11.516;2023-04-03T01:45:45;11.23;;;6.72;;
71106;SDS011;58763;47.982;11.516;2023-04-03T01:48:12;10.82;;;6.05;;
71106;SDS011;58763;47.982;11.516;2023-04-03T01:50:38;10.88;;;6.20;;
71106;SDS011;58763;47.982;11.516;2023-04-03T01:53:04;10.55;;;6.50;;
71106;SDS011;58763;47.982;11.516;2023-04-03T01:55:30;10.98;;;6.07;;
71106;SDS011;58763;47.982;11.516;2023-04-03T01:57:56;11.60;;;6.78;;
71106;SDS011;58763;47.982;11.516;2023-04-03T02:00:21;10.18;;;6.18;;
71106;SDS011;58763;47.982;11.516;2023-04-03T02:02:47;11.55;;;6.68;;
71106;SDS011;58763;47.982;11.516;2023-04-03T02:05:12;10.23;;;6.20;;
71106;SDS011;58763;47.982;11.516;2023-04-03T02:07:38;12.02;;;6.82;;
71106;SDS011;58763;47.982;11.516;2023-04-03T02:10:04;11.85;;;6.60;;
71106;SDS011;58763;47.982;11.516;2023-04-03T02:12:30;11.30;;;7.00;;
71106;SDS011;58763;47.982;11.516;2023-04-03T02:14:55;12.02;;;7.07;;
71106;SDS011;58763;47.982;11.516;2023-04-03T02:17:21;9.50;;;5.88;;
71106;SDS011;58763;47.982;11.516;2023-04-03T02:19:46;11.70;;;6.95;;
71106;SDS011;58763;47.982;11.516;2023-04-03T02:22:12;10.93;;;6.63;;
71106;SDS011;58763;47.982;11.516;2023-04-03T02:24:38;11.93;;;6.97;;
71106;SDS011;58763;47.982;11.516;2023-04-03T02:27:05;11.57;;;6.78;;
71106;SDS011;58763;47.982;11.516;2023-04-03T02:29:30;11.70;;;6.78;;
71106;SDS011;58763;47.982;11.516;2023-04-03T02:31:56;13.27;;;6.65;;
71106;SDS011;58763;47.982;11.516;2023-04-03T02:34:21;11.07;;;6.95;;
71106;SDS011;58763;47.982;11.516;2023-04-03T02:36:47;11.95;;;6.70;;
71106;SDS011;58763;47.982;11.516;2023-04-03T02:39:12;10.57;;;6.38;;
71106;SDS011;58763;47.982;11.516;2023-04-03T02:41:39;11.63;;;6.93;;
71106;SDS011;58763;47.982;11.516;2023-04-03T02:44:05;11.90;;;7.25;;
71106;SDS011;58763;47.982;11.516;2023-04-03T02:46:32;12.75;;;7.43;;
71106;SDS011;58763;47.982;11.516;2023-04-03T02:48:58;11.52;;;6.82;;
71106;SDS011;58763;47.982;11.516;2023-04-03T02:51:24;11.07;;;7.05;;
71106;SDS011;58763;47.982;11.516;2023-04-03T02:53:50;11.88;;;7.28;;
71106;SDS011;58763;47.982;11.516;2023-04-03T02:56:16;12.50;;;7.68;;
71106;SDS011;58763;47.982;11.516;2023-04-03T02:58:43;13.75;;;7.95;;
71106;SDS011;58763;47.982;11.516;2023-04-03T03:01:09;12.38;;;7.40;;
71106;SDS011;58763;47.982;11.516;2023-04-03T03:03:35;12.27;;;7.63;;
71106;SDS011;58763;47.982;11.516;2023-04-03T03:06:04;11.35;;;6.82;;
71106;SDS011;58763;47.982;11.516;2023-04-03T03:08:31;11.35;;;7.22;;
71106;SDS011;58763;47.982;11.516;2023-04-03T03:10:57;14.18;;;7.35;;
71106;SDS011;58763;47.982;11.516;2023-04-03T03:13:22;12.13;;;7.50;;
71106;SDS011;58763;47.982;11.516;2023-04-03T03:15:48;13.80;;;7.60;;
71106;SDS011;58763;47.982;11.516;2023-04-03T03:18:14;12.93;;;7.65;;
71106;SDS011;58763;47.982;11.516;2023-04-03T03:20:39;14.75;;;7.32;;
71106;SDS011;58763;47.982;11.516;2023-04-03T03:23:05;12.80;;;7.35;;
71106;SDS011;58763;47.982;11.516;2023-04-03T03:25:31;11.95;;;6.93;;
71106;SDS011;58763;47.982;11.516;2023-04-03T03:27:56;12.60;;;7.65;;
71106;SDS011;58763;47.982;11.516;2023-04-03T03:30:22;13.35;;;7.90;;
71106;SDS011;58763;47.982;11.516;2023-04-03T03:32:47;13.23;;;7.85;;
71106;SDS011;58763;47.982;11.516;2023-04-03T03:35:13;13.38;;;8.15;;
71106;SDS011;58763;47.982;11.516;2023-04-03T03:37:39;14.57;;;7.70;;
71106;SDS011;58763;47.982;11.516;2023-04-03T03:40:04;12.85;;;7.65;;
71106;SDS011;58763;47.982;11.516;2023-04-03T03:42:30;13.52;;;7.60;;
71106;SDS011;58763;47.982;11.516;2023-04-03T03:44:56;12.60;;;7.80;;
71106;SDS011;58763;47.982;11.516;2023-04-03T03:47:21;13.77;;;7.75;;
71106;SDS011;58763;47.982;11.516;2023-04-03T03:49:47;13.98;;;8.15;;
71106;SDS011;58763;47.982;11.516;2023-04-03T03:52:13;14.13;;;7.68;;
71106;SDS011;58763;47.982;11.516;2023-04-03T03:54:39;12.90;;;7.90;;
71106;SDS011;58763;47.982;11.516;2023-04-03T03:57:04;13.07;;;7.85;;
71106;SDS011;58763;47.982;11.516;2023-04-03T03:59:30;11.73;;;7.25;;
71106;SDS011;58763;47.982;11.516;2023-04-03T04:01:56;13.38;;;8.02;;
71106;SDS011;58763;47.982;11.516;2023-04-03T04:04:21;16.88;;;8.32;;
71106;SDS011;58763;47.982;11.516;2023-04-03T04:06:47;13.40;;;8.02;;
71106;SDS011;58763;47.982;11.516;2023-04-03T04:09:12;11.70;;;7.38;;
71106;SDS011;58763;47.982;11.516;2023-04-03T04:11:38;13.32;;;7.47;;
71106;SDS011;58763;47.982;11.516;2023-04-03T04:14:05;12.85;;;7.53;;
71106;SDS011;58763;47.982;11.516;2023-04-03T04:16:31;13.25;;;7.80;;
71106;SDS011;58763;47.982;11.516;2023-04-03T04:18:57;10.50;;;6.43;;
71106;SDS011;58763;47.982;11.516;2023-04-03T04:21:22;12.35;;;7.35;;
71106;SDS011;58763;47.982;11.516;2023-04-03T04:23:48;14.25;;;7.43;;
71106;SDS011;58763;47.982;11.516;2023-04-03T04:26:13;11.90;;;7.53;;
71106;SDS011;58763;47.982;11.516;2023-04-03T04:28:39;11.60;;;6.60;;
71106;SDS011;58763;47.982;11.516;2023-04-03T04:31:05;10.73;;;6.88;;
71106;SDS011;58763;47.982;11.516;2023-04-03T04:33:31;11.88;;;6.35;;
71106;SDS011;58763;47.982;11.516;2023-04-03T04:35:56;10.40;;;6.85;;
71106;SDS011;58763;47.982;11.516;2023-04-03T04:38:22;11.80;;;6.50;;
71106;SDS011;58763;47.982;11.516;2023-04-03T04:40:48;10.32;;;6.88;;
71106;SDS011;58763;47.982;11.516;2023-04-03T04:43:14;10.75;;;6.30;;
71106;SDS011;58763;47.982;11.516;2023-04-03T04:45:40;12.75;;;6.72;;
71106;SDS011;58763;47.982;11.516;2023-04-03T04:48:06;13.60;;;6.75;;
71106;SDS011;58763;47.982;11.516;2023-04-03T04:50:32;10.23;;;6.38;;
71106;SDS011;58763;47.982;11.516;2023-04-03T04:52:58;10.02;;;6.00;;
71106;SDS011;58763;47.982;11.516;2023-04-03T04:55:24;10.13;;;5.97;;
71106;SDS011;58763;47.982;11.516;2023-04-03T04:57:49;10.90;;;6.18;;
71106;SDS011;58763;47.982;11.516;2023-04-03T05:00:15;10.55;;;5.88;;
71106;SDS011;58763;47.982;11.516;2023-04-03T05:02:41;10.38;;;6.60;;
71106;SDS011;58763;47.982;11.516;2023-04-03T05:05:07;10.75;;;5.80;;
71106;SDS011;58763;47.982;11.516;2023-04-03T05:07:33;10.27;;;6.25;;
71106;SDS011;58763;47.982;11.516;2023-04-03T05:10:01;8.70;;;5.78;;
71106;SDS011;58763;47.982;11.516;2023-04-03T05:12:28;9.02;;;5.80;;
71106;SDS011;58763;47.982;11.516;2023-04-03T05:14:54;11.77;;;6.57;;
71106;SDS011;58763;47.982;11.516;2023-04-03T05:17:19;9.27;;;5.72;;
71106;SDS011;58763;47.982;11.516;2023-04-03T05:19:45;9.70;;;6.22;;
71106;SDS011;58763;47.982;11.516;2023-04-03T05:22:11;9.32;;;5.90;;
71106;SDS011;58763;47.982;11.516;2023-04-03T05:24:37;9.55;;;5.80;;
71106;SDS011;58763;47.982;11.516;2023-04-03T05:27:03;9.55;;;5.68;;
71106;SDS011;58763;47.982;11.516;2023-04-03T05:29:29;8.52;;;5.20;;
71106;SDS011;58763;47.982;11.516;2023-04-03T05:31:54;10.18;;;6.00;;
71106;SDS011;58763;47.982;11.516;2023-04-03T05:34:20;8.13;;;5.00;;
71106;SDS011;58763;47.982;11.516;2023-04-03T05:36:45;9.68;;;5.25;;
71106;SDS011;58763;47.982;11.516;2023-04-03T05:39:11;8.05;;;4.85;;
71106;SDS011;58763;47.982;11.516;2023-04-03T05:41:37;10.30;;;5.75;;
71106;SDS011;58763;47.982;11.516;2023-04-03T05:44:02;11.30;;;6.30;;
71106;SDS011;58763;47.982;11.516;2023-04-03T05:46:28;9.55;;;5.80;;
71106;SDS011;58763;47.982;11.516;2023-04-03T05:48:53;10.73;;;5.72;;
71106;SDS011;58763;47.982;11.516;2023-04-03T05:51:22;11.45;;;5.80;;
71106;SDS011;58763;47.982;11.516;2023-04-03T05:54:00;8.30;;;5.30;;
71106;SDS011;58763;47.982;11.516;2023-04-03T05:56:32;9.90;;;5.60;;
71106;SDS011;58763;47.982;11.516;2023-04-03T05:58:58;8.63;;;5.55;;
71106;SDS011;58763;47.982;11.516;2023-04-03T06:01:23;8.98;;;5.78;;
71106;SDS011;58763;47.982;11.516;2023-04-03T06:03:49;9.68;;;6.13;;
71106;SDS011;58763;47.982;11.516;2023-04-03T06:06:15;9.05;;;5.78;;
71106;SDS011;58763;47.982;11.516;2023-04-03T06:08:42;9.30;;;5.60;;
71106;SDS011;58763;47.982;11.516;2023-04-03T06:11:08;11.07;;;5.75;;
71106;SDS011;58763;47.982;11.516;2023-04-03T06:13:34;9.27;;;5.63;;
71106;SDS011;58763;47.982;11.516;2023-04-03T06:16:00;10.63;;;5.57;;
71106;SDS011;58763;47.982;11.516;2023-04-03T06:18:27;9.45;;;5.95;;
71106;SDS011;58763;47.982;11.516;2023-04-03T06:20:53;8.50;;;5.22;;
71106;SDS011;58763;47.982;11.516;2023-04-03T06:23:18;9.10;;;5.03;;
71106;SDS011;58763;47.982;11.516;2023-04-03T06:25:44;9.02;;;5.63;;
71106;SDS011;58763;47.982;11.516;2023-04-03T06:28:09;8.40;;;4.82;;
71106;SDS011;58763;47.982;11.516;2023-04-03T06:30:35;8.18;;;5.00;;
71106;SDS011;58763;47.982;11.516;2023-04-03T06:33:01;8.50;;;5.38;;
71106;SDS011;58763;47.982;11.516;2023-04-03T06:35:27;7.60;;;4.80;;
71106;SDS011;58763;47.982;11.516;2023-04-03T06:37:55;8.80;;;5.18;;
71106;SDS011;58763;47.982;11.516;2023-04-03T06:40:22;9.57;;;5.50;;
71106;SDS011;58763;47.982;11.516;2023-04-03T06:42:49;8.30;;;5.05;;
71106;SDS011;58763;47.982;11.516;2023-04-03T06:45:15;9.48;;;5.05;;
71106;SDS011;58763;47.982;11.516;2023-04-03T06:47:41;8.77;;;5.18;;
71106;SDS011;58763;47.982;11.516;2023-04-03T06:50:06;8.30;;;4.80;;
71106;SDS011;58763;47.982;11.516;2023-04-03T06:52:34;7.20;;;4.90;;
71106;SDS011;58763;47.982;11.516;2023-04-03T06:55:00;8.45;;;4.93;;
71106;SDS011;58763;47.982;11.516;2023-04-03T06:57:25;7.47;;;4.95;;
71106;SDS011;58763;47.982;11.516;2023-04-03T06:59:53;9.82;;;5.18;;
71106;SDS011;58763;47.982;11.516;2023-04-03T07:02:18;10.98;;;5.10;;
71106;SDS011;58763;47.982;11.516;2023-04-03T07:04:44;9.77;;;5.18;;
71106;SDS011;58763;47.982;11.516;2023-04-03T07:07:09;7.80;;;4.97;;
71106;SDS011;58763;47.982;11.516;2023-04-03T07:09:35;7.72;;;4.82;;
71106;SDS011;58763;47.982;11.516;2023-04-03T07:12:01;9.15;;;4.82;;
71106;SDS011;58763;47.982;11.516;2023-04-03T07:14:27;9.13;;;4.90;;
71106;SDS011;58763;47.982;11.516;2023-04-03T07:16:53;7.95;;;4.95;;
71106;SDS011;58763;47.982;11.516;2023-04-03T07:19:18;7.80;;;4.78;;
71106;SDS011;58763;47.982;11.516;2023-04-03T07:21:44;8.50;;;5.07;;
71106;SDS011;58763;47.982;11.516;2023-04-03T07:24:10;7.75;;;4.85;;
71106;SDS011;58763;47.982;11.516;2023-04-03T07:26:36;7.45;;;4.80;;
71106;SDS011;58763;47.982;11.516;2023-04-03T07:29:02;7.13;;;4.90;;
71106;SDS011;58763;47.982;11.516;2023-04-03T07:31:27;8.27;;;5.18;;
71106;SDS011;58763;47.982;11.516;2023-04-03T07:33:53;8.52;;;4.72;;
71106;SDS011;58763;47.982;11.516;2023-04-03T07:36:19;7.95;;;5.00;;
71106;SDS011;58763;47.982;11.516;2023-04-03T07:38:46;8.27;;;5.22;;
71106;SDS011;58763;47.982;11.516;2023-04-03T07:41:16;8.95;;;5.15;;
71106;SDS011;58763;47.982;11.516;2023-04-03T07:43:43;8.93;;;5.32;;
71106;SDS011;58763;47.982;11.516;2023-04-03T07:46:09;9.57;;;5.10;;
71106;SDS011;58763;47.982;11.516;2023-04-03T07:48:35;8.70;;;5.15;;
71106;SDS011;58763;47.982;11.516;2023-04-03T07:51:02;9.52;;;5.20;;
71106;SDS011;58763;47.982;11.516;2023-04-03T07:53:29;8.05;;;5.07;;
71106;SDS011;58763;47.982;11.516;2023-04-03T07:55:56;9.93;;;5.47;;
71106;SDS011;58763;47.982;11.516;2023-04-03T07:58:22;8.07;;;4.82;;
71106;SDS011;58763;47.982;11.516;2023-04-03T08:00:48;8.40;;;5.13;;
71106;SDS011;58763;47.982;11.516;2023-04-03T08:03:14;8.10;;;4.85;;
71106;SDS011;58763;47.982;11.516;2023-04-03T08:05:42;9.65;;;4.97;;
71106;SDS011;58763;47.982;11.516;2023-04-03T08:08:09;7.68;;;4.82;;
71106;SDS011;58763;47.982;11.516;2023-04-03T08:13:06;7.43;;;4.95;;
71106;SDS011;58763;47.982;11.516;2023-04-03T08:15:32;8.98;;;5.53;;
71106;SDS011;58763;47.982;11.516;2023-04-03T08:17:58;9.27;;;5.07;;
71106;SDS011;58763;47.982;11.516;2023-04-03T08:20:26;8.05;;;5.13;;
71106;SDS011;58763;47.982;11.516;2023-04-03T08:22:52;9.00;;;5.40;;
71106;SDS011;58763;47.982;11.516;2023-04-03T08:25:18;8.77;;;4.80;;
71106;SDS011;58763;47.982;11.516;2023-04-03T08:27:43;8.65;;;5.07;;
71106;SDS011;58763;47.982;11.516;2023-04-03T08:30:09;9.48;;;5.18;;
71106;SDS011;58763;47.982;11.516;2023-04-03T08:32:36;10.82;;;5.97;;
71106;SDS011;58763;47.982;11.516;2023-04-03T08:35:02;8.25;;;5.15;;
71106;SDS011;58763;47.982;11.516;2023-04-03T08:37:29;8.13;;;5.57;;
71106;SDS011;58763;47.982;11.516;2023-04-03T08:39:55;8.45;;;5.18;;
71106;SDS011;58763;47.982;11.516;2023-04-03T08:42:30;11.52;;;5.95;;
71106;SDS011;58763;47.982;11.516;2023-04-03T08:45:31;8.05;;;4.80;;
71106;SDS011;58763;47.982;11.516;2023-04-03T08:48:12;11.70;;;5.50;;
71106;SDS011;58763;47.982;11.516;2023-04-03T08:50:43;8.13;;;5.25;;
71106;SDS011;58763;47.982;11.516;2023-04-03T08:53:18;8.68;;;5.60;;
71106;SDS011;58763;47.982;11.516;2023-04-03T08:55:49;8.35;;;5.38;;
71106;SDS011;58763;47.982;11.516;2023-04-03T08:58:19;9.10;;;5.05;;
71106;SDS011;58763;47.982;11.516;2023-04-03T09:00:55;9.00;;;5.32;;
71106;SDS011;58763;47.982;11.516;2023-04-03T09:03:24;8.30;;;5.18;;
71106;SDS011;58763;47.982;11.516;2023-04-03T09:06:06;9.23;;;5.18;;
71106;SDS011;58763;47.982;11.516;2023-04-03T09:14:25;9.15;;;5.75;;
71106;SDS011;58763;47.982;11.516;2023-04-03T09:16:58;8.35;;;5.20;;
71106;SDS011;58763;47.982;11.516;2023-04-03T09:22:23;8.80;;;5.22;;
71106;SDS011;58763;47.982;11.516;2023-04-03T09:25:02;9.35;;;5.18;;
71106;SDS011;58763;47.982;11.516;2023-04-03T09:27:36;7.68;;;4.70;;
71106;SDS011;58763;47.982;11.516;2023-04-03T09:30:02;7.80;;;4.90;;
71106;SDS011;58763;47.982;11.516;2023-04-03T09:32:29;9.27;;;5.55;;
71106;SDS011;58763;47.982;11.516;2023-04-03T09:35:04;8.43;;;5.60;;
71106;SDS011;58763;47.982;11.516;2023-04-03T09:37:42;9.48;;;5.40;;
71106;SDS011;58763;47.982;11.516;2023-04-03T09:40:27;8.93;;;5.38;;
71106;SDS011;58763;47.982;11.516;2023-04-03T09:43:52;8.55;;;5.35;;
71106;SDS011;58763;47.982;11.516;2023-04-03T09:45:56;8.32;;;5.50;;
71106;SDS011;58763;47.982;11.516;2023-04-03T09:48:58;10.05;;;5.82;;
71106;SDS011;58763;47.982;11.516;2023-04-03T09:51:28;9.15;;;5.90;;
71106;SDS011;58763;47.982;11.516;2023-04-03T09:53:55;9.35;;;5.40;;
71106;SDS011;58763;47.982;11.516;2023-04-03T10:01:36;7.82;;;5.10;;
71106;SDS011;58763;47.982;11.516;2023-04-03T10:04:08;8.13;;;5.35;;
71106;SDS011;58763;47.982;11.516;2023-04-03T10:06:46;9.18;;;5.28;;
71106;SDS011;58763;47.982;11.516;2023-04-03T10:09:22;8.38;;;5.30;;
71106;SDS011;58763;47.982;11.516;2023-04-03T10:11:58;8.50;;;4.90;;
71106;SDS011;58763;47.982;11.516;2023-04-03T10:14:35;7.93;;;5.05;;
71106;SDS011;58763;47.982;11.516;2023-04-03T10:17:09;7.78;;;4.75;;
71106;SDS011;58763;47.982;11.516;2023-04-03T10:19:56;8.40;;;5.45;;
71106;SDS011;58763;47.982;11.516;2023-04-03T10:22:48;10.35;;;5.68;;
71106;SDS011;58763;47.982;11.516;2023-04-03T10:28:05;6.53;;;4.47;;
71106;SDS011;58763;47.982;11.516;2023-04-03T10:30:56;6.95;;;4.28;;
71106;SDS011;58763;47.982;11.516;2023-04-03T10:33:39;8.75;;;4.97;;
71106;SDS011;58763;47.982;11.516;2023-04-03T10:46:56;7.60;;;4.97;;
71106;SDS011;58763;47.982;11.516;2023-04-03T10:52:20;8.00;;;4.97;;
71106;SDS011;58763;47.982;11.516;2023-04-03T10:55:02;6.95;;;4.88;;
71106;SDS011;58763;47.982;11.516;2023-04-03T10:57:47;7.32;;;5.03;;
71106;SDS011;58763;47.982;11.516;2023-04-03T11:03:29;8.07;;;4.93;;
71106;SDS011;58763;47.982;11.516;2023-04-03T11:06:00;7.93;;;4.97;;
71106;SDS011;58763;47.982;11.516;2023-04-03T11:11:44;7.20;;;4.10;;
71106;SDS011;58763;47.982;11.516;2023-04-03T11:14:13;6.30;;;3.70;;
71106;SDS011;58763;47.982;11.516;2023-04-03T11:16:47;6.32;;;3.60;;
71106;SDS011;58763;47.982;11.516;2023-04-03T11:19:21;6.28;;;3.97;;
71106;SDS011;58763;47.982;11.516;2023-04-03T11:22:09;8.25;;;4.03;;
71106;SDS011;58763;47.982;11.516;2023-04-03T11:24:42;6.85;;;4.47;;
71106;SDS011;58763;47.982;11.516;2023-04-03T11:27:15;7.65;;;4.97;;
71106;SDS011;58763;47.982;11.516;2023-04-03T11:29:47;7.60;;;4.97;;
71106;SDS011;58763;47.982;11.516;2023-04-03T11:35:06;6.28;;;4.47;;
71106;SDS011;58763;47.982;11.516;2023-04-03T11:37:35;7.20;;;5.10;;
71106;SDS011;58763;47.982;11.516;2023-04-03T11:40:47;9.27;;;5.38;;
71106;SDS011;58763;47.982;11.516;2023-04-03T11:43:03;7.18;;;5.07;;
71106;SDS011;58763;47.982;11.516;2023-04-03T11:45:37;8.35;;;5.18;;
71106;SDS011;58763;47.982;11.516;2023-04-03T11:50:44;6.82;;;5.18;;
71106;SDS011;58763;47.982;11.516;2023-04-03T11:58:18;7.60;;;5.15;;
71106;SDS011;58763;47.982;11.516;2023-04-03T12:05:48;9.65;;;6.05;;
71106;SDS011;58763;47.982;11.516;2023-04-03T12:14:21;8.65;;;6.15;;
71106;SDS011;58763;47.982;11.516;2023-04-03T12:24:03;9.95;;;6.00;;
71106;SDS011;58763;47.982;11.516;2023-04-03T12:26:40;10.10;;;6.00;;
71106;SDS011;58763;47.982;11.516;2023-04-03T12:38:15;9.07;;;5.50;;
71106;SDS011;58763;47.982;11.516;2023-04-03T12:41:15;8.95;;;6.18;;
71106;SDS011;58763;47.982;11.516;2023-04-03T12:43:52;8.35;;;5.70;;
71106;SDS011;58763;47.982;11.516;2023-04-03T12:46:26;8.82;;;5.53;;
71106;SDS011;58763;47.982;11.516;2023-04-03T12:49:00;7.65;;;4.63;;
71106;SDS011;58763;47.982;11.516;2023-04-03T12:51:40;9.90;;;5.22;;
71106;SDS011;58763;47.982;11.516;2023-04-03T12:56:39;9.23;;;5.32;;
71106;SDS011;58763;47.982;11.516;2023-04-03T12:59:24;10.75;;;5.20;;
71106;SDS011;58763;47.982;11.516;2023-04-03T13:01:55;8.98;;;5.85;;
71106;SDS011;58763;47.982;11.516;2023-04-03T13:04:22;10.98;;;6.50;;
71106;SDS011;58763;47.982;11.516;2023-04-03T13:06:48;9.55;;;4.85;;
71106;SDS011;58763;47.982;11.516;2023-04-03T13:09:19;8.75;;;5.30;;
71106;SDS011;58763;47.982;11.516;2023-04-03T13:11:47;7.80;;;4.90;;
71106;SDS011;58763;47.982;11.516;2023-04-03T13:14:21;10.25;;;5.20;;
71106;SDS011;58763;47.982;11.516;2023-04-03T13:17:32;8.25;;;5.35;;
71106;SDS011;58763;47.982;11.516;2023-04-03T13:19:41;7.95;;;5.07;;
71106;SDS011;58763;47.982;11.516;2023-04-03T13:22:11;8.98;;;6.43;;
71106;SDS011;58763;47.982;11.516;2023-04-03T13:24:47;7.95;;;4.75;;
71106;SDS011;58763;47.982;11.516;2023-04-03T13:27:15;8.32;;;4.45;;
71106;SDS011;58763;47.982;11.516;2023-04-03T13:29:42;6.05;;;3.92;;
71106;SDS011;58763;47.982;11.516;2023-04-03T13:32:13;6.35;;;4.22;;
71106;SDS011;58763;47.982;11.516;2023-04-03T13:34:45;8.07;;;4.03;;
71106;SDS011;58763;47.982;11.516;2023-04-03T13:40:19;6.78;;;3.67;;
71106;SDS011;58763;47.982;11.516;2023-04-03T13:42:44;6.53;;;4.25;;
71106;SDS011;58763;47.982;11.516;2023-04-03T13:45:16;6.43;;;3.45;;
71106;SDS011;58763;47.982;11.516;2023-04-03T13:47:48;7.43;;;3.75;;
71106;SDS011;58763;47.982;11.516;2023-04-03T13:50:19;5.53;;;3.55;;
71106;SDS011;58763;47.982;11.516;2023-04-03T13:52:55;6.63;;;3.40;;
71106;SDS011;58763;47.982;11.516;2023-04-03T13:55:52;6.90;;;3.72;;
71106;SDS011;58763;47.982;11.516;2023-04-03T13:58:23;8.48;;;3.72;;
71106;SDS011;58763;47.982;11.516;2023-04-03T14:00:52;7.47;;;3.85;;
71106;SDS011;58763;47.982;11.516;2023-04-03T14:03:47;5.50;;;3.30;;
71106;SDS011;58763;47.982;11.516;2023-04-03T14:06:27;5.10;;;3.17;;
71106;SDS011;58763;47.982;11.516;2023-04-03T14:08:54;5.07;;;3.30;;
71106;SDS011;58763;47.982;11.516;2023-04-03T14:11:26;5.85;;;3.38;;
71106;SDS011;58763;47.982;11.516;2023-04-03T14:13:57;6.72;;;3.33;;
71106;SDS011;58763;47.982;11.516;2023-04-03T14:16:28;5.30;;;3.15;;
71106;SDS011;58763;47.982;11.516;2023-04-03T14:18:57;4.97;;;2.92;;
71106;SDS011;58763;47.982;11.516;2023-04-03T14:21:23;7.22;;;3.17;;
71106;SDS011;58763;47.982;11.516;2023-04-03T14:23:49;8.55;;;3.50;;
71106;SDS011;58763;47.982;11.516;2023-04-03T14:26:20;6.25;;;3.60;;
71106;SDS011;58763;47.982;11.516;2023-04-03T14:28:49;6.15;;;3.03;;
71106;SDS011;58763;47.982;11.516;2023-04-03T14:31:16;5.40;;;3.13;;
71106;SDS011;58763;47.982;11.516;2023-04-03T14:33:43;6.65;;;3.35;;
71106;SDS011;58763;47.982;11.516;2023-04-03T14:38:43;6.35;;;3.25;;
71106;SDS011;58763;47.982;11.516;2023-04-03T14:41:10;6.93;;;3.28;;
71106;SDS011;58763;47.982;11.516;2023-04-03T14:43:37;5.97;;;3.10;;
71106;SDS011;58763;47.982;11.516;2023-04-03T14:46:04;5.72;;;3.25;;
71106;SDS011;58763;47.982;11.516;2023-04-03T14:48:30;8.35;;;3.03;;
71106;SDS011;58763;47.982;11.516;2023-04-03T14:50:56;5.43;;;2.20;;
71106;SDS011;58763;47.982;11.516;2023-04-03T14:53:21;4.53;;;2.28;;
71106;SDS011;58763;47.982;11.516;2023-04-03T14:55:49;4.55;;;2.20;;
71106;SDS011;58763;47.982;11.516;2023-04-03T14:58:16;4.75;;;2.17;;
71106;SDS011;58763;47.982;11.516;2023-04-03T15:00:44;4.70;;;2.00;;
71106;SDS011;58763;47.982;11.516;2023-04-03T15:03:18;4.68;;;2.25;;
71106;SDS011;58763;47.982;11.516;2023-04-03T15:05:46;6.45;;;2.35;;
71106;SDS011;58763;47.982;11.516;2023-04-03T15:08:21;4.03;;;1.80;;
71106;SDS011;58763;47.982;11.516;2023-04-03T15:10:49;6.28;;;2.00;;
71106;SDS011;58763;47.982;11.516;2023-04-03T15:13:18;4.60;;;1.88;;
71106;SDS011;58763;47.982;11.516;2023-04-03T15:15:44;5.68;;;1.95;;
71106;SDS011;58763;47.982;11.516;2023-04-03T15:18:15;4.55;;;1.90;;
71106;SDS011;58763;47.982;11.516;2023-04-03T15:20:44;5.47;;;2.25;;
71106;SDS011;58763;47.982;11.516;2023-04-03T15:23:12;7.70;;;2.10;;
71106;SDS011;58763;47.982;11.516;2023-04-03T15:25:44;3.78;;;1.67;;
71106;SDS011;58763;47.982;11.516;2023-04-03T15:30:50;5.30;;;2.03;;
71106;SDS011;58763;47.982;11.516;2023-04-03T15:33:16;5.30;;;2.13;;
71106;SDS011;58763;47.982;11.516;2023-04-03T15:35:42;4.25;;;1.80;;
71106;SDS011;58763;47.982;11.516;2023-04-03T15:38:08;3.83;;;1.70;;
71106;SDS011;58763;47.982;11.516;2023-04-03T15:40:35;4.05;;;1.80;;
71106;SDS011;58763;47.982;11.516;2023-04-03T15:43:00;5.05;;;1.92;;
71106;SDS011;58763;47.982;11.516;2023-04-03T15:45:28;5.03;;;1.67;;
71106;SDS011;58763;47.982;11.516;2023-04-03T15:47:55;9.93;;;6.32;;
71106;SDS011;58763;47.982;11.516;2023-04-03T15:50:21;17.92;;;10.07;;
71106;SDS011;58763;47.982;11.516;2023-04-03T15:52:49;9.77;;;4.80;;
71106;SDS011;58763;47.982;11.516;2023-04-03T15:55:23;13.38;;;9.23;;
71106;SDS011;58763;47.982;11.516;2023-04-03T15:57:50;28.55;;;16.02;;
71106;SDS011;58763;47.982;11.516;2023-04-03T16:00:18;10.15;;;7.07;;
71106;SDS011;58763;47.982;11.516;2023-04-03T16:02:45;5.43;;;2.75;;
71106;SDS011;58763;47.982;11.516;2023-04-03T16:05:13;6.82;;;3.10;;
71106;SDS011;58763;47.982;11.516;2023-04-03T16:07:40;10.05;;;8.50;;
71106;SDS011;58763;47.982;11.516;2023-04-03T16:10:09;11.50;;;8.32;;
71106;SDS011;58763;47.982;11.516;2023-04-03T16:15:03;4.20;;;2.65;;
71106;SDS011;58763;47.982;11.516;2023-04-03T16:17:31;6.85;;;4.18;;
71106;SDS011;58763;47.982;11.516;2023-04-03T16:19:58;6.20;;;4.05;;
71106;SDS011;58763;47.982;11.516;2023-04-03T16:22:25;5.13;;;2.95;;
71106;SDS011;58763;47.982;11.516;2023-04-03T16:24:52;4.90;;;2.47;;